sensor_id;sensor_type;location;lat;lon;timestamp;pressure;altitude;pressure_sealevel;temperature;humidity
26436;BME280;15351;52.408;16.826;2023-02-12T00:01:22;102369.02;;;7.85;79.46
26436;BME280;15351;52.408;16.826;2023-02-12T00:03:50;102376.98;;;7.89;79.50
26436;BME280;15351;52.408;16.826;2023-02-12T00:06:16;102378.69;;;7.92;79.55
26436;BME280;15351;52.408;16.826;2023-02-12T00:08:48;102375.04;;;7.90;79.63
26436;BME280;15351;52.408;16.826;2023-02-12T00:11:18;102380.04;;;7.88;79.92
26436;BME280;15351;52.408;16.826;2023-02-12T00:13:46;102382.77;;;7.88;79.96
26436;BME280;15351;52.408;16.826;2023-02-12T00:16:15;102386.84;;;7.86;80.10
26436;BME280;15351;52.408;16.826;2023-02-12T00:18:43;102384.31;;;7.84;80.29
26436;BME280;15351;52.408;16.826;2023-02-12T00:21:12;102389.92;;;7.83;80.35
26436;BME280;15351;52.408;16.826;2023-02-12T00:23:43;102397.86;;;7.85;80.40
26436;BME280;15351;52.408;16.826;2023-02-12T00:26:12;102404.23;;;7.86;80.38
26436;BME280;15351;52.408;16.826;2023-02-12T00:28:43;102408.79;;;7.90;80.50
26436;BME280;15351;52.408;16.826;2023-02-12T00:31:16;102407.34;;;7.97;80.48
26436;BME280;15351;52.408;16.826;2023-02-12T00:33:43;102410.94;;;8.02;80.62
26436;BME280;15351;52.408;16.826;2023-02-12T00:36:18;102419.80;;;8.03;80.36
26436;BME280;15351;52.408;16.826;2023-02-12T00:38:46;102421.58;;;7.98;80.19
26436;BME280;15351;52.408;16.826;2023-02-12T00:41:14;102418.65;;;7.96;80.25
26436;BME280;15351;52.408;16.826;2023-02-12T00:43:42;102422.17;;;8.00;80.40
26436;BME280;15351;52.408;16.826;2023-02-12T00:46:08;102422.96;;;8.02;80.31
26436;BME280;15351;52.408;16.826;2023-02-12T00:48:36;102425.16;;;8.03;80.30
26436;BME280;15351;52.408;16.826;2023-02-12T00:51:05;102434.89;;;8.05;80.18
26436;BME280;15351;52.408;16.826;2023-02-12T00:53:33;102441.07;;;8.04;80.02
26436;BME280;15351;52.408;16.826;2023-02-12T00:56:01;102446.86;;;8.05;80.34
26436;BME280;15351;52.408;16.826;2023-02-12T00:58:27;102450.21;;;8.11;80.27
26436;BME280;15351;52.408;16.826;2023-02-12T01:00:55;102451.36;;;8.15;80.09
26436;BME280;15351;52.408;16.826;2023-02-12T01:03:24;102454.03;;;8.15;79.95
26436;BME280;15351;52.408;16.826;2023-02-12T01:05:53;102452.81;;;8.15;80.06
26436;BME280;15351;52.408;16.826;2023-02-12T01:08:21;102459.41;;;8.15;80.05
26436;BME280;15351;52.408;16.826;2023-02-12T01:10:58;102463.73;;;8.15;80.13
26436;BME280;15351;52.408;16.826;2023-02-12T01:13:27;102471.59;;;8.15;79.87
26436;BME280;15351;52.408;16.826;2023-02-12T01:16:06;102479.04;;;8.16;79.92
26436;BME280;15351;52.408;16.826;2023-02-12T01:18:36;102477.73;;;8.21;80.08
26436;BME280;15351;52.408;16.826;2023-02-12T01:21:12;102483.45;;;8.23;80.03
26436;BME280;15351;52.408;16.826;2023-02-12T01:23:41;102482.55;;;8.26;79.99
26436;BME280;15351;52.408;16.826;2023-02-12T01:26:09;102490.17;;;8.22;79.76
26436;BME280;15351;52.408;16.826;2023-02-12T01:28:39;102495.98;;;8.21;79.94
26436;BME280;15351;52.408;16.826;2023-02-12T01:31:14;102501.59;;;8.23;79.87
26436;BME280;15351;52.408;16.826;2023-02-12T01:33:47;102503.90;;;8.21;79.94
26436;BME280;15351;52.408;16.826;2023-02-12T01:36:14;102508.35;;;8.21;79.75
26436;BME280;15351;52.408;16.826;2023-02-12T01:38:42;102508.77;;;8.21;79.58
26436;BME280;15351;52.408;16.826;2023-02-12T01:41:16;102512.01;;;8.23;79.76
26436;BME280;15351;52.408;16.826;2023-02-12T01:44:03;102508.45;;;8.27;79.81
26436;BME280;15351;52.408;16.826;2023-02-12T01:46:32;102506.27;;;8.28;79.89
26436;BME280;15351;52.408;16.826;2023-02-12T01:49:02;102513.49;;;8.30;79.68
26436;BME280;15351;52.408;16.826;2023-02-12T01:51:32;102514.99;;;8.28;79.51
26436;BME280;15351;52.408;16.826;2023-02-12T01:54:04;102514.92;;;8.27;79.47
26436;BME280;15351;52.408;16.826;2023-02-12T01:56:33;102512.69;;;8.28;79.62
26436;BME280;15351;52.408;16.826;2023-02-12T01:59:01;102516.78;;;8.31;79.67
26436;BME280;15351;52.408;16.826;2023-02-12T02:01:32;102518.80;;;8.31;79.34
26436;BME280;15351;52.408;16.826;2023-02-12T02:04:13;102524.02;;;8.31;79.38
26436;BME280;15351;52.408;16.826;2023-02-12T02:06:50;102519.23;;;8.32;79.46
26436;BME280;15351;52.408;16.826;2023-02-12T02:09:20;102518.63;;;8.35;79.57
26436;BME280;15351;52.408;16.826;2023-02-12T02:11:47;102523.61;;;8.38;79.49
26436;BME280;15351;52.408;16.826;2023-02-12T02:14:33;102524.77;;;8.37;79.38
26436;BME280;15351;52.408;16.826;2023-02-12T02:17:35;102526.79;;;8.39;79.31
26436;BME280;15351;52.408;16.826;2023-02-12T02:29:03;102524.86;;;8.43;78.63
26436;BME280;15351;52.408;16.826;2023-02-12T02:31:46;102529.06;;;8.39;78.70
26436;BME280;15351;52.408;16.826;2023-02-12T02:37:48;102535.58;;;8.36;78.69
26436;BME280;15351;52.408;16.826;2023-02-12T02:40:52;102536.23;;;8.35;78.65
26436;BME280;15351;52.408;16.826;2023-02-12T02:43:29;102543.27;;;8.27;78.48
26436;BME280;15351;52.408;16.826;2023-02-12T02:46:04;102545.55;;;8.22;78.66
26436;BME280;15351;52.408;16.826;2023-02-12T02:48:36;102548.12;;;8.22;78.76
26436;BME280;15351;52.408;16.826;2023-02-12T02:51:18;102556.84;;;8.22;78.70
26436;BME280;15351;52.408;16.826;2023-02-12T02:53:53;102560.78;;;8.23;78.73
26436;BME280;15351;52.408;16.826;2023-02-12T02:56:23;102560.89;;;8.26;78.69
26436;BME280;15351;52.408;16.826;2023-02-12T02:58:57;102561.66;;;8.30;78.55
26436;BME280;15351;52.408;16.826;2023-02-12T03:01:38;102563.82;;;8.33;78.34
26436;BME280;15351;52.408;16.826;2023-02-12T03:04:16;102567.28;;;8.32;77.91
26436;BME280;15351;52.408;16.826;2023-02-12T03:06:59;102567.48;;;8.26;77.86
26436;BME280;15351;52.408;16.826;2023-02-12T03:09:37;102564.75;;;8.25;78.03
26436;BME280;15351;52.408;16.826;2023-02-12T03:12:12;102565.45;;;8.23;78.11
26436;BME280;15351;52.408;16.826;2023-02-12T03:15:00;102566.95;;;8.24;77.77
26436;BME280;15351;52.408;16.826;2023-02-12T03:17:33;102566.98;;;8.26;77.45
26436;BME280;15351;52.408;16.826;2023-02-12T03:20:07;102572.17;;;8.26;77.36
26436;BME280;15351;52.408;16.826;2023-02-12T03:22:39;102576.32;;;8.26;77.27
26436;BME280;15351;52.408;16.826;2023-02-12T03:25:13;102578.94;;;8.29;76.98
26436;BME280;15351;52.408;16.826;2023-02-12T03:27:44;102580.03;;;8.29;76.57
26436;BME280;15351;52.408;16.826;2023-02-12T03:30:14;102593.05;;;8.20;76.55
26436;BME280;15351;52.408;16.826;2023-02-12T03:35:30;102602.80;;;8.02;76.77
26436;BME280;15351;52.408;16.826;2023-02-12T03:38:07;102608.18;;;7.96;76.97
26436;BME280;15351;52.408;16.826;2023-02-12T03:40:41;102616.10;;;7.91;77.03
26436;BME280;15351;52.408;16.826;2023-02-12T03:43:27;102615.61;;;7.86;77.21
26436;BME280;15351;52.408;16.826;2023-02-12T03:46:32;102617.45;;;7.80;77.44
26436;BME280;15351;52.408;16.826;2023-02-12T03:49:10;102625.27;;;7.75;77.40
26436;BME280;15351;52.408;16.826;2023-02-12T03:51:41;102629.93;;;7.73;77.49
26436;BME280;15351;52.408;16.826;2023-02-12T03:54:12;102632.21;;;7.69;77.52
26436;BME280;15351;52.408;16.826;2023-02-12T03:56:43;102634.91;;;7.67;77.48
26436;BME280;15351;52.408;16.826;2023-02-12T03:59:15;102639.48;;;7.65;77.63
26436;BME280;15351;52.408;16.826;2023-02-12T04:01:42;102646.19;;;7.66;77.66
26436;BME280;15351;52.408;16.826;2023-02-12T04:04:09;102647.77;;;7.67;77.51
26436;BME280;15351;52.408;16.826;2023-02-12T04:06:37;102647.64;;;7.66;77.53
26436;BME280;15351;52.408;16.826;2023-02-12T04:09:11;102646.91;;;7.66;77.70
26436;BME280;15351;52.408;16.826;2023-02-12T04:14:43;102654.11;;;7.75;77.48
26436;BME280;15351;52.408;16.826;2023-02-12T04:17:25;102654.82;;;7.80;77.15
26436;BME280;15351;52.408;16.826;2023-02-12T04:20:30;102650.98;;;7.77;77.08
26436;BME280;15351;52.408;16.826;2023-02-12T04:23:16;102656.63;;;7.73;77.06
26436;BME280;15351;52.408;16.826;2023-02-12T04:31:21;102661.58;;;7.74;77.13
26436;BME280;15351;52.408;16.826;2023-02-12T04:37:06;102660.69;;;7.79;77.21
26436;BME280;15351;52.408;16.826;2023-02-12T04:39:38;102659.27;;;7.78;76.98
26436;BME280;15351;52.408;16.826;2023-02-12T04:42:07;102661.29;;;7.78;76.96
26436;BME280;15351;52.408;16.826;2023-02-12T04:44:39;102661.40;;;7.76;76.99
26436;BME280;15351;52.408;16.826;2023-02-12T04:47:07;102669.77;;;7.82;76.97
26436;BME280;15351;52.408;16.826;2023-02-12T04:49:34;102669.20;;;7.86;76.87
26436;BME280;15351;52.408;16.826;2023-02-12T04:52:02;102669.44;;;7.87;76.60
26436;BME280;15351;52.408;16.826;2023-02-12T04:54:30;102672.13;;;7.84;76.59
26436;BME280;15351;52.408;16.826;2023-02-12T04:56:58;102675.70;;;7.79;76.62
26436;BME280;15351;52.408;16.826;2023-02-12T04:59:26;102674.23;;;7.77;76.69
26436;BME280;15351;52.408;16.826;2023-02-12T05:01:53;102677.84;;;7.79;76.56
26436;BME280;15351;52.408;16.826;2023-02-12T05:04:22;102678.68;;;7.77;76.41
26436;BME280;15351;52.408;16.826;2023-02-12T05:06:49;102683.36;;;7.75;76.53
26436;BME280;15351;52.408;16.826;2023-02-12T05:09:18;102678.65;;;7.73;76.52
26436;BME280;15351;52.408;16.826;2023-02-12T05:11:46;102687.02;;;7.74;76.64
26436;BME280;15351;52.408;16.826;2023-02-12T05:14:13;102695.57;;;7.74;76.52
26436;BME280;15351;52.408;16.826;2023-02-12T05:16:41;102699.38;;;7.73;76.26
26436;BME280;15351;52.408;16.826;2023-02-12T05:19:09;102705.70;;;7.72;76.39
26436;BME280;15351;52.408;16.826;2023-02-12T05:21:38;102701.23;;;7.72;76.65
26436;BME280;15351;52.408;16.826;2023-02-12T05:24:06;102705.27;;;7.74;76.49
26436;BME280;15351;52.408;16.826;2023-02-12T05:26:34;102710.05;;;7.72;76.34
26436;BME280;15351;52.408;16.826;2023-02-12T05:29:02;102713.69;;;7.69;76.20
26436;BME280;15351;52.408;16.826;2023-02-12T05:31:29;102715.45;;;7.64;76.40
26436;BME280;15351;52.408;16.826;2023-02-12T05:33:56;102719.46;;;7.66;76.56
26436;BME280;15351;52.408;16.826;2023-02-12T05:36:24;102720.95;;;7.70;76.39
26436;BME280;15351;52.408;16.826;2023-02-12T05:38:52;102724.50;;;7.71;76.10
26436;BME280;15351;52.408;16.826;2023-02-12T05:41:23;102736.00;;;7.65;76.16
26436;BME280;15351;52.408;16.826;2023-02-12T05:43:50;102740.19;;;7.59;76.46
26436;BME280;15351;52.408;16.826;2023-02-12T05:46:18;102748.23;;;7.58;76.57
26436;BME280;15351;52.408;16.826;2023-02-12T05:48:46;102748.16;;;7.60;76.62
26436;BME280;15351;52.408;16.826;2023-02-12T05:51:19;102748.70;;;7.62;76.57
26436;BME280;15351;52.408;16.826;2023-02-12T05:53:49;102754.34;;;7.59;76.43
26436;BME280;15351;52.408;16.826;2023-02-12T05:56:19;102759.83;;;7.57;76.62
26436;BME280;15351;52.408;16.826;2023-02-12T05:58:51;102771.99;;;7.57;76.56
26436;BME280;15351;52.408;16.826;2023-02-12T06:01:27;102776.05;;;7.55;76.47
26436;BME280;15351;52.408;16.826;2023-02-12T06:03:55;102774.23;;;7.56;76.32
26436;BME280;15351;52.408;16.826;2023-02-12T06:06:26;102777.96;;;7.53;76.36
26436;BME280;15351;52.408;16.826;2023-02-12T06:08:54;102783.08;;;7.52;76.55
26436;BME280;15351;52.408;16.826;2023-02-12T06:11:22;102782.14;;;7.53;76.71
26436;BME280;15351;52.408;16.826;2023-02-12T06:13:50;102786.48;;;7.52;76.47
26436;BME280;15351;52.408;16.826;2023-02-12T06:16:22;102789.63;;;7.50;76.38
26436;BME280;15351;52.408;16.826;2023-02-12T06:18:54;102791.45;;;7.49;76.61
26436;BME280;15351;52.408;16.826;2023-02-12T06:21:23;102793.64;;;7.49;76.84
26436;BME280;15351;52.408;16.826;2023-02-12T06:23:51;102798.12;;;7.52;76.85
26436;BME280;15351;52.408;16.826;2023-02-12T06:26:22;102799.17;;;7.55;76.63
26436;BME280;15351;52.408;16.826;2023-02-12T06:28:51;102801.86;;;7.55;76.48
26436;BME280;15351;52.408;16.826;2023-02-12T06:31:28;102806.33;;;7.55;76.54
26436;BME280;15351;52.408;16.826;2023-02-12T06:33:59;102811.68;;;7.55;76.56
26436;BME280;15351;52.408;16.826;2023-02-12T06:36:27;102815.15;;;7.59;76.60
26436;BME280;15351;52.408;16.826;2023-02-12T06:38:54;102817.52;;;7.64;76.29
26436;BME280;15351;52.408;16.826;2023-02-12T06:41:22;102822.10;;;7.60;76.35
26436;BME280;15351;52.408;16.826;2023-02-12T06:43:51;102823.59;;;7.57;76.45
26436;BME280;15351;52.408;16.826;2023-02-12T06:46:19;102825.50;;;7.55;76.62
26436;BME280;15351;52.408;16.826;2023-02-12T06:48:46;102831.52;;;7.56;76.53
26436;BME280;15351;52.408;16.826;2023-02-12T06:51:16;102835.34;;;7.55;76.50
26436;BME280;15351;52.408;16.826;2023-02-12T06:53:44;102837.52;;;7.54;76.45
26436;BME280;15351;52.408;16.826;2023-02-12T06:56:12;102844.63;;;7.50;76.53
26436;BME280;15351;52.408;16.826;2023-02-12T06:58:42;102849.22;;;7.48;76.84
26436;BME280;15351;52.408;16.826;2023-02-12T07:01:14;102851.27;;;7.49;76.77
26436;BME280;15351;52.408;16.826;2023-02-12T07:04:09;102846.38;;;7.48;76.75
26436;BME280;15351;52.408;16.826;2023-02-12T07:06:36;102845.67;;;7.45;76.74
26436;BME280;15351;52.408;16.826;2023-02-12T07:09:06;102848.18;;;7.45;77.02
26436;BME280;15351;52.408;16.826;2023-02-12T07:11:35;102845.71;;;7.44;77.12
26436;BME280;15351;52.408;16.826;2023-02-12T07:14:03;102847.98;;;7.45;77.03
26436;BME280;15351;52.408;16.826;2023-02-12T07:16:31;102855.41;;;7.46;77.16
26436;BME280;15351;52.408;16.826;2023-02-12T07:19:02;102861.55;;;7.48;77.09
26436;BME280;15351;52.408;16.826;2023-02-12T07:21:29;102862.06;;;7.48;77.19
26436;BME280;15351;52.408;16.826;2023-02-12T07:24:00;102859.34;;;7.52;77.21
26436;BME280;15351;52.408;16.826;2023-02-12T07:26:29;102862.29;;;7.53;77.10
26436;BME280;15351;52.408;16.826;2023-02-12T07:28:56;102861.46;;;7.50;77.18
26436;BME280;15351;52.408;16.826;2023-02-12T07:31:26;102866.70;;;7.44;77.01
26436;BME280;15351;52.408;16.826;2023-02-12T07:33:55;102868.42;;;7.36;77.29
26436;BME280;15351;52.408;16.826;2023-02-12T07:36:30;102865.67;;;7.34;77.38
26436;BME280;15351;52.408;16.826;2023-02-12T07:38:58;102872.09;;;7.29;77.39
26436;BME280;15351;52.408;16.826;2023-02-12T07:41:28;102880.17;;;7.24;77.37
26436;BME280;15351;52.408;16.826;2023-02-12T07:44:07;102885.37;;;7.18;77.54
26436;BME280;15351;52.408;16.826;2023-02-12T07:46:43;102891.30;;;7.17;77.88
26436;BME280;15351;52.408;16.826;2023-02-12T07:49:18;102893.65;;;7.20;77.98
26436;BME280;15351;52.408;16.826;2023-02-12T07:51:51;102890.52;;;7.22;77.99
26436;BME280;15351;52.408;16.826;2023-02-12T07:54:26;102898.16;;;7.22;77.98
26436;BME280;15351;52.408;16.826;2023-02-12T07:56:53;102896.17;;;7.26;78.23
26436;BME280;15351;52.408;16.826;2023-02-12T07:59:27;102897.94;;;7.26;78.19
26436;BME280;15351;52.408;16.826;2023-02-12T08:01:58;102903.52;;;7.25;78.14
26436;BME280;15351;52.408;16.826;2023-02-12T08:04:27;102906.69;;;7.23;78.02
26436;BME280;15351;52.408;16.826;2023-02-12T08:06:55;102905.07;;;7.18;77.74
26436;BME280;15351;52.408;16.826;2023-02-12T08:09:25;102904.27;;;7.11;78.05
26436;BME280;15351;52.408;16.826;2023-02-12T08:11:53;102901.02;;;7.14;78.12
26436;BME280;15351;52.408;16.826;2023-02-12T08:14:22;102899.45;;;7.13;77.96
26436;BME280;15351;52.408;16.826;2023-02-12T08:16:51;102901.49;;;7.03;77.65
26436;BME280;15351;52.408;16.826;2023-02-12T08:19:18;102908.05;;;6.93;77.82
26436;BME280;15351;52.408;16.826;2023-02-12T08:21:50;102911.40;;;6.91;78.15
26436;BME280;15351;52.408;16.826;2023-02-12T08:24:19;102912.73;;;6.96;78.52
26436;BME280;15351;52.408;16.826;2023-02-12T08:26:48;102912.16;;;6.99;78.40
26436;BME280;15351;52.408;16.826;2023-02-12T08:29:22;102912.41;;;7.01;78.31
26436;BME280;15351;52.408;16.826;2023-02-12T08:32:05;102908.36;;;7.03;78.45
26436;BME280;15351;52.408;16.826;2023-02-12T08:34:37;102907.84;;;7.02;78.32
26436;BME280;15351;52.408;16.826;2023-02-12T08:37:05;102908.54;;;7.00;78.44
26436;BME280;15351;52.408;16.826;2023-02-12T08:39:33;102908.95;;;6.99;78.28
26436;BME280;15351;52.408;16.826;2023-02-12T08:42:03;102909.10;;;6.97;78.20
26436;BME280;15351;52.408;16.826;2023-02-12T08:44:34;102907.91;;;6.96;78.33
26436;BME280;15351;52.408;16.826;2023-02-12T08:47:04;102909.19;;;6.98;78.35
26436;BME280;15351;52.408;16.826;2023-02-12T08:49:32;102913.67;;;6.98;78.36
26436;BME280;15351;52.408;16.826;2023-02-12T08:52:08;102916.88;;;7.01;78.21
26436;BME280;15351;52.408;16.826;2023-02-12T08:54:42;102918.98;;;7.01;78.04
26436;BME280;15351;52.408;16.826;2023-02-12T08:57:13;102919.48;;;7.02;78.09
26436;BME280;15351;52.408;16.826;2023-02-12T08:59:40;102917.79;;;7.04;78.21
26436;BME280;15351;52.408;16.826;2023-02-12T09:02:09;102921.63;;;7.08;78.01
26436;BME280;15351;52.408;16.826;2023-02-12T09:04:38;102918.10;;;7.07;77.84
26436;BME280;15351;52.408;16.826;2023-02-12T09:07:06;102921.80;;;7.08;77.98
26436;BME280;15351;52.408;16.826;2023-02-12T09:09:33;102915.68;;;7.09;78.03
26436;BME280;15351;52.408;16.826;2023-02-12T09:12:04;102922.90;;;7.07;77.90
26436;BME280;15351;52.408;16.826;2023-02-12T09:14:31;102928.33;;;7.07;78.01
26436;BME280;15351;52.408;16.826;2023-02-12T09:16:58;102932.40;;;7.07;78.08
26436;BME280;15351;52.408;16.826;2023-02-12T09:19:26;102938.17;;;7.06;78.14
26436;BME280;15351;52.408;16.826;2023-02-12T09:21:54;102941.42;;;7.06;78.14
26436;BME280;15351;52.408;16.826;2023-02-12T09:24:25;102945.88;;;7.04;78.23
26436;BME280;15351;52.408;16.826;2023-02-12T09:26:54;102948.79;;;7.06;78.48
26436;BME280;15351;52.408;16.826;2023-02-12T09:29:21;102957.97;;;6.99;78.33
26436;BME280;15351;52.408;16.826;2023-02-12T09:31:48;102960.34;;;6.93;78.54
26436;BME280;15351;52.408;16.826;2023-02-12T09:34:15;102959.88;;;6.91;78.69
26436;BME280;15351;52.408;16.826;2023-02-12T09:36:42;102962.93;;;6.91;79.03
26436;BME280;15351;52.408;16.826;2023-02-12T09:39:11;102966.98;;;6.92;79.10
26436;BME280;15351;52.408;16.826;2023-02-12T09:47:12;102963.67;;;6.94;79.31
26436;BME280;15351;52.408;16.826;2023-02-12T09:52:23;102958.73;;;7.04;79.72
26436;BME280;15351;52.408;16.826;2023-02-12T09:54:55;102950.28;;;7.10;79.61
26436;BME280;15351;52.408;16.826;2023-02-12T09:57:34;102948.48;;;7.13;79.71
26436;BME280;15351;52.408;16.826;2023-02-12T10:02:41;102950.48;;;7.13;79.97
26436;BME280;15351;52.408;16.826;2023-02-12T10:05:22;102952.02;;;7.20;80.21
26436;BME280;15351;52.408;16.826;2023-02-12T10:10:56;102943.60;;;7.36;80.30
26436;BME280;15351;52.408;16.826;2023-02-12T10:13:30;102939.08;;;7.40;80.22
26436;BME280;15351;52.408;16.826;2023-02-12T10:16:11;102937.11;;;7.43;80.40
26436;BME280;15351;52.408;16.826;2023-02-12T10:26:53;102934.60;;;7.51;80.73
26436;BME280;15351;52.408;16.826;2023-02-12T10:29:25;102937.03;;;7.55;80.89
26436;BME280;15351;52.408;16.826;2023-02-12T10:32:09;102939.52;;;7.60;81.11
26436;BME280;15351;52.408;16.826;2023-02-12T10:34:37;102937.75;;;7.66;81.08
26436;BME280;15351;52.408;16.826;2023-02-12T10:37:36;102935.86;;;7.70;81.17
26436;BME280;15351;52.408;16.826;2023-02-12T10:40:16;102941.74;;;7.73;81.16
26436;BME280;15351;52.408;16.826;2023-02-12T10:42:46;102941.06;;;7.75;81.21
26436;BME280;15351;52.408;16.826;2023-02-12T10:45:17;102941.84;;;7.80;81.30
26436;BME280;15351;52.408;16.826;2023-02-12T10:47:48;102941.91;;;7.78;81.19
26436;BME280;15351;52.408;16.826;2023-02-12T10:50:39;102937.36;;;7.72;81.15
26436;BME280;15351;52.408;16.826;2023-02-12T10:53:15;102935.90;;;7.67;81.40
26436;BME280;15351;52.408;16.826;2023-02-12T10:55:44;102936.23;;;7.70;81.82
26436;BME280;15351;52.408;16.826;2023-02-12T10:58:21;102932.44;;;7.75;82.06
26436;BME280;15351;52.408;16.826;2023-02-12T11:00:56;102936.70;;;7.84;82.05
26436;BME280;15351;52.408;16.826;2023-02-12T11:03:32;102935.75;;;7.91;81.99
26436;BME280;15351;52.408;16.826;2023-02-12T11:06:23;102936.02;;;7.97;81.74
26436;BME280;15351;52.408;16.826;2023-02-12T11:08:52;102939.26;;;8.03;81.66
26436;BME280;15351;52.408;16.826;2023-02-12T11:11:28;102941.71;;;8.15;81.51
26436;BME280;15351;52.408;16.826;2023-02-12T11:14:13;102947.42;;;8.09;80.81
26436;BME280;15351;52.408;16.826;2023-02-12T11:16:51;102949.27;;;7.97;80.74
26436;BME280;15351;52.408;16.826;2023-02-12T11:19:37;102945.23;;;7.99;80.94
26436;BME280;15351;52.408;16.826;2023-02-12T11:22:09;102939.27;;;8.03;80.90
26436;BME280;15351;52.408;16.826;2023-02-12T11:24:37;102942.14;;;8.06;80.98
26436;BME280;15351;52.408;16.826;2023-02-12T11:30:15;102934.14;;;8.04;80.72
26436;BME280;15351;52.408;16.826;2023-02-12T11:32:43;102939.61;;;8.06;80.43
26436;BME280;15351;52.408;16.826;2023-02-12T11:35:18;102937.48;;;8.00;80.18
26436;BME280;15351;52.408;16.826;2023-02-12T11:37:57;102934.39;;;7.94;80.38
26436;BME280;15351;52.408;16.826;2023-02-12T11:40:28;102934.04;;;7.97;80.24
26436;BME280;15351;52.408;16.826;2023-02-12T11:42:59;102930.77;;;7.98;80.21
26436;BME280;15351;52.408;16.826;2023-02-12T11:45:40;102930.02;;;8.05;80.41
26436;BME280;15351;52.408;16.826;2023-02-12T11:48:17;102932.47;;;8.13;80.39
26436;BME280;15351;52.408;16.826;2023-02-12T11:50:48;102928.91;;;8.16;80.03
26436;BME280;15351;52.408;16.826;2023-02-12T11:53:28;102927.39;;;8.12;79.47
26436;BME280;15351;52.408;16.826;2023-02-12T11:55:59;102925.81;;;8.00;79.31
26436;BME280;15351;52.408;16.826;2023-02-12T11:58:28;102924.02;;;7.97;79.76
26436;BME280;15351;52.408;16.826;2023-02-12T12:01:18;102917.21;;;8.06;80.02
26436;BME280;15351;52.408;16.826;2023-02-12T12:09:15;102910.58;;;8.32;79.41
26436;BME280;15351;52.408;16.826;2023-02-12T12:12:35;102913.70;;;8.28;79.33
26436;BME280;15351;52.408;16.826;2023-02-12T12:14:59;102911.00;;;8.31;79.58
26436;BME280;15351;52.408;16.826;2023-02-12T12:17:54;102912.80;;;8.39;79.51
26436;BME280;15351;52.408;16.826;2023-02-12T12:20:51;102923.16;;;8.37;79.17
26436;BME280;15351;52.408;16.826;2023-02-12T12:23:36;102916.06;;;8.33;79.41
26436;BME280;15351;52.408;16.826;2023-02-12T12:26:30;102912.01;;;8.27;79.22
26436;BME280;15351;52.408;16.826;2023-02-12T12:29:11;102905.44;;;8.20;79.59
26436;BME280;15351;52.408;16.826;2023-02-12T12:31:57;102903.82;;;8.18;79.56
26436;BME280;15351;52.408;16.826;2023-02-12T12:34:28;102898.96;;;8.18;79.56
26436;BME280;15351;52.408;16.826;2023-02-12T12:37:25;102896.16;;;8.17;79.62
26436;BME280;15351;52.408;16.826;2023-02-12T12:40:33;102894.70;;;8.16;79.71
26436;BME280;15351;52.408;16.826;2023-02-12T12:43:12;102895.09;;;8.20;79.95
26436;BME280;15351;52.408;16.826;2023-02-12T12:51:37;102891.64;;;8.16;80.00
26436;BME280;15351;52.408;16.826;2023-02-12T13:16:59;102874.40;;;8.21;80.41
26436;BME280;15351;52.408;16.826;2023-02-12T13:19:45;102869.44;;;8.23;80.60
26436;BME280;15351;52.408;16.826;2023-02-12T13:25:35;102863.27;;;8.29;80.53
26436;BME280;15351;52.408;16.826;2023-02-12T13:28:32;102861.73;;;8.28;80.69
26436;BME280;15351;52.408;16.826;2023-02-12T13:31:08;102858.28;;;8.26;80.72
26436;BME280;15351;52.408;16.826;2023-02-12T13:33:47;102858.30;;;8.28;80.88
26436;BME280;15351;52.408;16.826;2023-02-12T13:36:17;102859.88;;;8.32;80.77
26436;BME280;15351;52.408;16.826;2023-02-12T13:38:58;102863.52;;;8.31;80.67
26436;BME280;15351;52.408;16.826;2023-02-12T13:41:31;102861.24;;;8.27;80.60
26436;BME280;15351;52.408;16.826;2023-02-12T13:47:11;102864.64;;;8.22;80.81
26436;BME280;15351;52.408;16.826;2023-02-12T13:50:15;102863.71;;;8.25;80.83
26436;BME280;15351;52.408;16.826;2023-02-12T13:53:00;102859.80;;;8.25;80.91
26436;BME280;15351;52.408;16.826;2023-02-12T13:55:38;102863.03;;;8.22;80.92
26436;BME280;15351;52.408;16.826;2023-02-12T14:01:14;102860.65;;;8.31;81.40
26436;BME280;15351;52.408;16.826;2023-02-12T14:06:54;102863.76;;;8.30;81.16
26436;BME280;15351;52.408;16.826;2023-02-12T14:12:29;102864.98;;;8.30;81.47
26436;BME280;15351;52.408;16.826;2023-02-12T14:15:06;102865.24;;;8.34;81.22
26436;BME280;15351;52.408;16.826;2023-02-12T14:20:26;102870.02;;;8.33;81.22
26436;BME280;15351;52.408;16.826;2023-02-12T14:23:00;102873.71;;;8.34;81.30
26436;BME280;15351;52.408;16.826;2023-02-12T14:28:19;102876.72;;;8.34;81.13
26436;BME280;15351;52.408;16.826;2023-02-12T14:33:51;102880.60;;;8.27;81.34
26436;BME280;15351;52.408;16.826;2023-02-12T14:50:14;102881.08;;;8.28;80.95
26436;BME280;15351;52.408;16.826;2023-02-12T14:53:25;102880.63;;;8.27;80.91
26436;BME280;15351;52.408;16.826;2023-02-12T14:55:54;102881.34;;;8.24;80.82
26436;BME280;15351;52.408;16.826;2023-02-12T14:58:24;102883.80;;;8.17;80.71
26436;BME280;15351;52.408;16.826;2023-02-12T15:00:56;102884.48;;;8.16;80.78
26436;BME280;15351;52.408;16.826;2023-02-12T15:03:48;102883.83;;;8.15;80.90
26436;BME280;15351;52.408;16.826;2023-02-12T15:06:27;102886.80;;;8.18;80.81
26436;BME280;15351;52.408;16.826;2023-02-12T15:09:08;102886.34;;;8.19;80.72
26436;BME280;15351;52.408;16.826;2023-02-12T15:11:43;102890.70;;;8.21;80.79
26436;BME280;15351;52.408;16.826;2023-02-12T15:14:14;102888.41;;;8.26;80.96
26436;BME280;15351;52.408;16.826;2023-02-12T15:17:07;102888.40;;;8.34;80.65
26436;BME280;15351;52.408;16.826;2023-02-12T15:20:18;102886.47;;;8.36;80.22
26436;BME280;15351;52.408;16.826;2023-02-12T15:22:46;102881.86;;;8.32;79.97
26436;BME280;15351;52.408;16.826;2023-02-12T15:25:31;102886.90;;;8.21;79.90
26436;BME280;15351;52.408;16.826;2023-02-12T15:28:20;102883.02;;;8.18;80.26